sensor_id;sensor_type;location;lat;lon;timestamp;P1;durP1;ratioP1;P2;durP2;ratioP2
71172;SDS011;58875;51.996;4.504;2023-11-19T00:01:55;15.09;;;10.03;;
71172;SDS011;58875;51.996;4.504;2023-11-19T00:04:21;16.36;;;10.85;;
71172;SDS011;58875;51.996;4.504;2023-11-19T00:06:47;17.37;;;11.48;;
71172;SDS011;58875;51.996;4.504;2023-11-19T00:09:13;17.61;;;11.49;;
71172;SDS011;58875;51.996;4.504;2023-11-19T00:11:41;17.71;;;11.59;;
71172;SDS011;58875;51.996;4.504;2023-11-19T00:14:07;16.55;;;10.92;;
71172;SDS011;58875;51.996;4.504;2023-11-19T00:16:33;15.89;;;10.54;;
71172;SDS011;58875;51.996;4.504;2023-11-19T00:18:59;18.49;;;12.05;;
71172;SDS011;58875;51.996;4.504;2023-11-19T00:21:25;17.61;;;11.39;;
71172;SDS011;58875;51.996;4.504;2023-11-19T00:23:53;18.43;;;11.83;;
71172;SDS011;58875;51.996;4.504;2023-11-19T00:26:19;19.39;;;12.27;;
71172;SDS011;58875;51.996;4.504;2023-11-19T00:28:45;20.92;;;13.22;;
71172;SDS011;58875;51.996;4.504;2023-11-19T00:31:13;21.82;;;13.76;;
71172;SDS011;58875;51.996;4.504;2023-11-19T00:33:39;20.10;;;12.77;;
71172;SDS011;58875;51.996;4.504;2023-11-19T00:36:08;22.46;;;14.16;;
71172;SDS011;58875;51.996;4.504;2023-11-19T00:38:34;21.90;;;13.82;;
71172;SDS011;58875;51.996;4.504;2023-11-19T00:41:00;22.13;;;14.12;;
71172;SDS011;58875;51.996;4.504;2023-11-19T00:43:25;21.50;;;13.54;;
71172;SDS011;58875;51.996;4.504;2023-11-19T00:45:52;23.17;;;14.47;;
71172;SDS011;58875;51.996;4.504;2023-11-19T00:48:17;21.50;;;13.64;;
71172;SDS011;58875;51.996;4.504;2023-11-19T00:50:43;23.40;;;14.79;;
71172;SDS011;58875;51.996;4.504;2023-11-19T00:53:10;23.55;;;14.70;;
71172;SDS011;58875;51.996;4.504;2023-11-19T00:55:35;23.16;;;14.47;;
71172;SDS011;58875;51.996;4.504;2023-11-19T00:58:01;23.31;;;14.65;;
71172;SDS011;58875;51.996;4.504;2023-11-19T01:00:28;23.41;;;14.76;;
71172;SDS011;58875;51.996;4.504;2023-11-19T01:02:54;22.05;;;13.98;;
71172;SDS011;58875;51.996;4.504;2023-11-19T01:05:20;23.51;;;14.87;;
71172;SDS011;58875;51.996;4.504;2023-11-19T01:07:49;24.75;;;15.38;;
71172;SDS011;58875;51.996;4.504;2023-11-19T01:10:15;25.18;;;15.58;;
71172;SDS011;58875;51.996;4.504;2023-11-19T01:12:44;25.84;;;16.10;;
71172;SDS011;58875;51.996;4.504;2023-11-19T01:15:09;25.93;;;16.01;;
71172;SDS011;58875;51.996;4.504;2023-11-19T01:17:38;24.28;;;15.21;;
71172;SDS011;58875;51.996;4.504;2023-11-19T01:20:04;23.65;;;14.96;;
71172;SDS011;58875;51.996;4.504;2023-11-19T01:22:32;25.44;;;15.88;;
71172;SDS011;58875;51.996;4.504;2023-11-19T01:24:58;23.96;;;15.02;;
71172;SDS011;58875;51.996;4.504;2023-11-19T01:27:24;25.45;;;15.83;;
71172;SDS011;58875;51.996;4.504;2023-11-19T01:29:50;26.61;;;16.54;;
71172;SDS011;58875;51.996;4.504;2023-11-19T01:32:15;23.79;;;15.01;;
71172;SDS011;58875;51.996;4.504;2023-11-19T01:34:41;25.53;;;15.95;;
71172;SDS011;58875;51.996;4.504;2023-11-19T01:37:07;23.90;;;14.92;;
71172;SDS011;58875;51.996;4.504;2023-11-19T01:39:35;25.94;;;16.13;;
71172;SDS011;58875;51.996;4.504;2023-11-19T01:42:00;24.91;;;15.55;;
71172;SDS011;58875;51.996;4.504;2023-11-19T01:44:26;26.66;;;16.50;;
71172;SDS011;58875;51.996;4.504;2023-11-19T01:46:51;24.70;;;15.42;;
71172;SDS011;58875;51.996;4.504;2023-11-19T01:49:18;24.98;;;15.57;;
71172;SDS011;58875;51.996;4.504;2023-11-19T01:51:45;24.94;;;15.53;;
71172;SDS011;58875;51.996;4.504;2023-11-19T01:54:13;23.12;;;14.49;;
71172;SDS011;58875;51.996;4.504;2023-11-19T01:56:40;24.08;;;15.13;;
71172;SDS011;58875;51.996;4.504;2023-11-19T01:59:07;25.79;;;16.21;;
71172;SDS011;58875;51.996;4.504;2023-11-19T02:01:35;25.23;;;15.76;;
71172;SDS011;58875;51.996;4.504;2023-11-19T02:04:05;27.58;;;17.06;;
71172;SDS011;58875;51.996;4.504;2023-11-19T02:06:32;27.91;;;17.20;;
71172;SDS011;58875;51.996;4.504;2023-11-19T02:09:02;26.70;;;16.58;;
71172;SDS011;58875;51.996;4.504;2023-11-19T02:11:33;25.89;;;16.20;;
71172;SDS011;58875;51.996;4.504;2023-11-19T02:14:00;28.59;;;17.77;;
71172;SDS011;58875;51.996;4.504;2023-11-19T02:16:26;26.81;;;16.67;;
71172;SDS011;58875;51.996;4.504;2023-11-19T02:18:51;28.99;;;18.02;;
71172;SDS011;58875;51.996;4.504;2023-11-19T02:21:17;28.57;;;17.65;;
71172;SDS011;58875;51.996;4.504;2023-11-19T02:23:43;29.24;;;18.08;;
71172;SDS011;58875;51.996;4.504;2023-11-19T02:28:59;30.37;;;18.60;;
71172;SDS011;58875;51.996;4.504;2023-11-19T02:31:25;29.65;;;18.18;;
71172;SDS011;58875;51.996;4.504;2023-11-19T02:33:52;31.07;;;19.13;;
71172;SDS011;58875;51.996;4.504;2023-11-19T02:36:18;27.94;;;17.42;;
71172;SDS011;58875;51.996;4.504;2023-11-19T02:38:43;27.84;;;17.47;;
71172;SDS011;58875;51.996;4.504;2023-11-19T02:41:09;25.78;;;16.40;;
71172;SDS011;58875;51.996;4.504;2023-11-19T02:43:35;27.86;;;17.45;;
71172;SDS011;58875;51.996;4.504;2023-11-19T02:46:03;28.31;;;17.47;;
71172;SDS011;58875;51.996;4.504;2023-11-19T02:48:34;30.10;;;18.63;;
71172;SDS011;58875;51.996;4.504;2023-11-19T02:51:03;26.60;;;16.61;;
71172;SDS011;58875;51.996;4.504;2023-11-19T02:53:32;28.92;;;17.93;;
71172;SDS011;58875;51.996;4.504;2023-11-19T02:55:58;28.98;;;18.10;;
71172;SDS011;58875;51.996;4.504;2023-11-19T02:58:31;29.13;;;18.16;;
71172;SDS011;58875;51.996;4.504;2023-11-19T03:00:57;30.81;;;19.02;;
71172;SDS011;58875;51.996;4.504;2023-11-19T03:03:35;31.65;;;19.37;;
71172;SDS011;58875;51.996;4.504;2023-11-19T03:06:05;30.74;;;18.80;;
71172;SDS011;58875;51.996;4.504;2023-11-19T03:08:32;29.69;;;18.29;;
71172;SDS011;58875;51.996;4.504;2023-11-19T03:10:58;28.97;;;17.91;;
71172;SDS011;58875;51.996;4.504;2023-11-19T03:13:24;30.55;;;18.80;;
71172;SDS011;58875;51.996;4.504;2023-11-19T03:15:49;29.79;;;18.25;;
71172;SDS011;58875;51.996;4.504;2023-11-19T03:18:15;30.34;;;18.71;;
71172;SDS011;58875;51.996;4.504;2023-11-19T03:20:41;31.64;;;19.46;;
71172;SDS011;58875;51.996;4.504;2023-11-19T03:23:06;29.80;;;18.36;;
71172;SDS011;58875;51.996;4.504;2023-11-19T03:25:32;28.64;;;17.93;;
71172;SDS011;58875;51.996;4.504;2023-11-19T03:28:01;27.46;;;17.07;;
71172;SDS011;58875;51.996;4.504;2023-11-19T03:30:28;30.47;;;18.73;;
71172;SDS011;58875;51.996;4.504;2023-11-19T03:32:55;31.78;;;19.56;;
71172;SDS011;58875;51.996;4.504;2023-11-19T03:35:22;30.17;;;18.66;;
71172;SDS011;58875;51.996;4.504;2023-11-19T03:37:48;31.54;;;19.53;;
71172;SDS011;58875;51.996;4.504;2023-11-19T03:40:13;29.45;;;18.31;;
71172;SDS011;58875;51.996;4.504;2023-11-19T03:42:39;30.79;;;19.00;;
71172;SDS011;58875;51.996;4.504;2023-11-19T03:45:06;31.50;;;19.33;;
71172;SDS011;58875;51.996;4.504;2023-11-19T03:47:34;30.63;;;18.90;;
71172;SDS011;58875;51.996;4.504;2023-11-19T03:50:00;31.29;;;19.38;;
71172;SDS011;58875;51.996;4.504;2023-11-19T03:52:26;29.26;;;18.15;;
71172;SDS011;58875;51.996;4.504;2023-11-19T03:54:52;28.46;;;17.66;;
71172;SDS011;58875;51.996;4.504;2023-11-19T03:57:18;30.75;;;18.89;;
71172;SDS011;58875;51.996;4.504;2023-11-19T03:59:43;30.20;;;18.51;;
71172;SDS011;58875;51.996;4.504;2023-11-19T04:02:09;31.28;;;19.24;;
71172;SDS011;58875;51.996;4.504;2023-11-19T04:04:35;29.20;;;18.04;;
71172;SDS011;58875;51.996;4.504;2023-11-19T04:07:01;29.03;;;17.91;;
71172;SDS011;58875;51.996;4.504;2023-11-19T04:09:28;28.99;;;17.98;;
71172;SDS011;58875;51.996;4.504;2023-11-19T04:11:58;27.31;;;17.03;;
71172;SDS011;58875;51.996;4.504;2023-11-19T04:14:24;29.60;;;18.16;;
71172;SDS011;58875;51.996;4.504;2023-11-19T04:16:50;32.46;;;19.69;;
71172;SDS011;58875;51.996;4.504;2023-11-19T04:19:17;30.81;;;18.75;;
71172;SDS011;58875;51.996;4.504;2023-11-19T04:21:44;29.87;;;18.20;;
71172;SDS011;58875;51.996;4.504;2023-11-19T04:24:09;30.19;;;18.33;;
71172;SDS011;58875;51.996;4.504;2023-11-19T04:26:42;29.15;;;17.80;;
71172;SDS011;58875;51.996;4.504;2023-11-19T04:29:11;31.23;;;18.96;;
71172;SDS011;58875;51.996;4.504;2023-11-19T04:31:37;29.80;;;18.18;;
71172;SDS011;58875;51.996;4.504;2023-11-19T04:34:04;29.62;;;18.14;;
71172;SDS011;58875;51.996;4.504;2023-11-19T04:36:33;28.74;;;17.73;;
71172;SDS011;58875;51.996;4.504;2023-11-19T04:38:59;27.08;;;16.61;;
71172;SDS011;58875;51.996;4.504;2023-11-19T04:41:26;30.88;;;18.87;;
71172;SDS011;58875;51.996;4.504;2023-11-19T04:43:54;28.00;;;17.19;;
71172;SDS011;58875;51.996;4.504;2023-11-19T04:46:20;27.14;;;16.68;;
71172;SDS011;58875;51.996;4.504;2023-11-19T04:48:46;28.88;;;17.76;;
71172;SDS011;58875;51.996;4.504;2023-11-19T04:51:11;29.55;;;18.02;;
71172;SDS011;58875;51.996;4.504;2023-11-19T04:53:37;27.96;;;17.17;;
71172;SDS011;58875;51.996;4.504;2023-11-19T04:56:09;29.50;;;17.99;;
71172;SDS011;58875;51.996;4.504;2023-11-19T04:58:35;29.84;;;18.20;;
71172;SDS011;58875;51.996;4.504;2023-11-19T05:01:02;30.17;;;18.42;;
71172;SDS011;58875;51.996;4.504;2023-11-19T05:03:29;32.09;;;19.52;;
71172;SDS011;58875;51.996;4.504;2023-11-19T05:05:55;31.06;;;18.81;;
71172;SDS011;58875;51.996;4.504;2023-11-19T05:08:20;32.16;;;19.46;;
71172;SDS011;58875;51.996;4.504;2023-11-19T05:10:46;32.97;;;19.85;;
71172;SDS011;58875;51.996;4.504;2023-11-19T05:13:11;31.53;;;19.04;;
71172;SDS011;58875;51.996;4.504;2023-11-19T05:15:37;30.74;;;18.67;;
71172;SDS011;58875;51.996;4.504;2023-11-19T05:18:03;28.98;;;17.70;;
71172;SDS011;58875;51.996;4.504;2023-11-19T05:20:30;31.03;;;18.91;;
71172;SDS011;58875;51.996;4.504;2023-11-19T05:22:55;30.92;;;18.86;;
71172;SDS011;58875;51.996;4.504;2023-11-19T05:25:21;32.34;;;19.52;;
71172;SDS011;58875;51.996;4.504;2023-11-19T05:27:46;32.91;;;19.84;;
71172;SDS011;58875;51.996;4.504;2023-11-19T05:30:12;33.13;;;19.99;;
71172;SDS011;58875;51.996;4.504;2023-11-19T05:32:37;32.60;;;19.54;;
71172;SDS011;58875;51.996;4.504;2023-11-19T05:35:03;32.85;;;19.77;;
71172;SDS011;58875;51.996;4.504;2023-11-19T05:37:29;33.12;;;19.99;;
71172;SDS011;58875;51.996;4.504;2023-11-19T05:39:57;32.09;;;19.37;;
71172;SDS011;58875;51.996;4.504;2023-11-19T05:42:25;32.66;;;19.79;;
71172;SDS011;58875;51.996;4.504;2023-11-19T05:44:52;30.23;;;18.41;;
71172;SDS011;58875;51.996;4.504;2023-11-19T05:47:21;33.60;;;20.45;;
71172;SDS011;58875;51.996;4.504;2023-11-19T05:49:46;31.95;;;19.45;;
71172;SDS011;58875;51.996;4.504;2023-11-19T05:52:12;29.13;;;17.85;;
71172;SDS011;58875;51.996;4.504;2023-11-19T05:54:38;32.88;;;19.93;;
71172;SDS011;58875;51.996;4.504;2023-11-19T05:57:06;32.70;;;19.73;;
71172;SDS011;58875;51.996;4.504;2023-11-19T05:59:35;32.07;;;19.44;;
71172;SDS011;58875;51.996;4.504;2023-11-19T06:02:02;30.67;;;18.63;;
71172;SDS011;58875;51.996;4.504;2023-11-19T06:04:28;31.09;;;18.86;;
71172;SDS011;58875;51.996;4.504;2023-11-19T06:06:54;30.55;;;18.47;;
71172;SDS011;58875;51.996;4.504;2023-11-19T06:09:20;31.31;;;18.90;;
71172;SDS011;58875;51.996;4.504;2023-11-19T06:11:48;30.24;;;18.28;;
71172;SDS011;58875;51.996;4.504;2023-11-19T06:14:16;30.56;;;18.41;;
71172;SDS011;58875;51.996;4.504;2023-11-19T06:16:41;30.67;;;18.41;;
71172;SDS011;58875;51.996;4.504;2023-11-19T06:19:07;28.60;;;17.28;;
71172;SDS011;58875;51.996;4.504;2023-11-19T06:21:33;31.10;;;18.62;;
71172;SDS011;58875;51.996;4.504;2023-11-19T06:24:02;28.11;;;17.02;;
71172;SDS011;58875;51.996;4.504;2023-11-19T06:26:27;28.39;;;17.11;;
71172;SDS011;58875;51.996;4.504;2023-11-19T06:28:53;28.88;;;17.37;;
71172;SDS011;58875;51.996;4.504;2023-11-19T06:31:19;26.83;;;16.31;;
71172;SDS011;58875;51.996;4.504;2023-11-19T06:33:45;28.97;;;17.63;;
71172;SDS011;58875;51.996;4.504;2023-11-19T06:36:14;31.33;;;18.86;;
71172;SDS011;58875;51.996;4.504;2023-11-19T06:38:41;32.60;;;19.53;;
71172;SDS011;58875;51.996;4.504;2023-11-19T06:41:08;32.13;;;19.26;;
71172;SDS011;58875;51.996;4.504;2023-11-19T06:43:37;29.63;;;17.92;;
71172;SDS011;58875;51.996;4.504;2023-11-19T06:46:03;26.20;;;16.20;;
71172;SDS011;58875;51.996;4.504;2023-11-19T06:48:31;25.26;;;15.57;;
71172;SDS011;58875;51.996;4.504;2023-11-19T06:50:57;29.65;;;17.94;;
71172;SDS011;58875;51.996;4.504;2023-11-19T06:53:24;29.80;;;18.09;;
71172;SDS011;58875;51.996;4.504;2023-11-19T06:55:49;28.67;;;17.41;;
71172;SDS011;58875;51.996;4.504;2023-11-19T06:58:15;29.32;;;17.80;;
71172;SDS011;58875;51.996;4.504;2023-11-19T07:00:40;28.12;;;17.22;;
71172;SDS011;58875;51.996;4.504;2023-11-19T07:03:06;30.55;;;18.48;;
71172;SDS011;58875;51.996;4.504;2023-11-19T07:05:35;29.95;;;18.04;;
71172;SDS011;58875;51.996;4.504;2023-11-19T07:08:03;31.12;;;18.71;;
71172;SDS011;58875;51.996;4.504;2023-11-19T07:10:29;30.46;;;18.24;;
71172;SDS011;58875;51.996;4.504;2023-11-19T07:12:55;32.57;;;19.49;;
71172;SDS011;58875;51.996;4.504;2023-11-19T07:15:21;31.64;;;19.09;;
71172;SDS011;58875;51.996;4.504;2023-11-19T07:17:47;31.89;;;19.34;;
71172;SDS011;58875;51.996;4.504;2023-11-19T07:20:13;28.76;;;17.52;;
71172;SDS011;58875;51.996;4.504;2023-11-19T07:22:42;31.29;;;18.89;;
71172;SDS011;58875;51.996;4.504;2023-11-19T07:25:12;31.47;;;18.94;;
71172;SDS011;58875;51.996;4.504;2023-11-19T07:27:38;33.06;;;19.95;;
71172;SDS011;58875;51.996;4.504;2023-11-19T07:30:04;31.85;;;19.28;;
71172;SDS011;58875;51.996;4.504;2023-11-19T07:32:33;31.09;;;18.79;;
71172;SDS011;58875;51.996;4.504;2023-11-19T07:34:58;33.19;;;19.89;;
71172;SDS011;58875;51.996;4.504;2023-11-19T07:37:24;30.86;;;18.64;;
71172;SDS011;58875;51.996;4.504;2023-11-19T07:39:50;30.94;;;18.73;;
71172;SDS011;58875;51.996;4.504;2023-11-19T07:42:19;31.52;;;18.92;;
71172;SDS011;58875;51.996;4.504;2023-11-19T07:44:45;32.16;;;19.29;;
71172;SDS011;58875;51.996;4.504;2023-11-19T07:47:11;32.00;;;19.20;;
71172;SDS011;58875;51.996;4.504;2023-11-19T07:49:37;32.41;;;19.33;;
71172;SDS011;58875;51.996;4.504;2023-11-19T07:52:03;32.22;;;19.28;;
71172;SDS011;58875;51.996;4.504;2023-11-19T07:54:29;29.64;;;17.84;;
71172;SDS011;58875;51.996;4.504;2023-11-19T07:56:55;29.37;;;17.80;;
71172;SDS011;58875;51.996;4.504;2023-11-19T07:59:20;30.04;;;18.10;;
71172;SDS011;58875;51.996;4.504;2023-11-19T08:01:46;30.09;;;18.19;;
71172;SDS011;58875;51.996;4.504;2023-11-19T08:04:13;29.22;;;17.75;;
71172;SDS011;58875;51.996;4.504;2023-11-19T08:06:39;28.08;;;17.02;;
71172;SDS011;58875;51.996;4.504;2023-11-19T08:09:05;28.42;;;17.28;;
71172;SDS011;58875;51.996;4.504;2023-11-19T08:11:31;29.89;;;18.12;;
71172;SDS011;58875;51.996;4.504;2023-11-19T08:13:57;26.85;;;16.41;;
71172;SDS011;58875;51.996;4.504;2023-11-19T08:16:22;27.58;;;16.81;;
71172;SDS011;58875;51.996;4.504;2023-11-19T08:18:48;31.27;;;19.02;;
71172;SDS011;58875;51.996;4.504;2023-11-19T08:21:13;31.24;;;18.97;;
71172;SDS011;58875;51.996;4.504;2023-11-19T08:23:40;30.98;;;18.78;;
71172;SDS011;58875;51.996;4.504;2023-11-19T08:26:05;28.31;;;17.20;;
71172;SDS011;58875;51.996;4.504;2023-11-19T08:28:31;28.63;;;17.41;;
71172;SDS011;58875;51.996;4.504;2023-11-19T08:30:59;29.92;;;18.09;;
71172;SDS011;58875;51.996;4.504;2023-11-19T08:33:24;30.07;;;18.18;;
71172;SDS011;58875;51.996;4.504;2023-11-19T08:35:50;30.56;;;18.34;;
71172;SDS011;58875;51.996;4.504;2023-11-19T08:38:15;30.83;;;18.62;;
71172;SDS011;58875;51.996;4.504;2023-11-19T08:40:41;29.51;;;17.80;;
71172;SDS011;58875;51.996;4.504;2023-11-19T08:43:07;30.28;;;18.15;;
71172;SDS011;58875;51.996;4.504;2023-11-19T08:45:35;29.19;;;17.61;;
71172;SDS011;58875;51.996;4.504;2023-11-19T08:48:01;27.42;;;16.62;;
71172;SDS011;58875;51.996;4.504;2023-11-19T08:50:27;28.35;;;17.12;;
71172;SDS011;58875;51.996;4.504;2023-11-19T08:52:52;29.01;;;17.63;;
71172;SDS011;58875;51.996;4.504;2023-11-19T08:55:18;30.06;;;18.25;;
71172;SDS011;58875;51.996;4.504;2023-11-19T08:57:43;31.63;;;19.12;;
71172;SDS011;58875;51.996;4.504;2023-11-19T09:00:10;30.08;;;18.08;;
71172;SDS011;58875;51.996;4.504;2023-11-19T09:02:39;28.76;;;17.44;;
71172;SDS011;58875;51.996;4.504;2023-11-19T09:05:05;28.81;;;17.51;;
71172;SDS011;58875;51.996;4.504;2023-11-19T09:07:34;31.71;;;19.09;;
71172;SDS011;58875;51.996;4.504;2023-11-19T09:09:59;29.83;;;18.10;;
71172;SDS011;58875;51.996;4.504;2023-11-19T09:12:25;29.89;;;17.99;;
71172;SDS011;58875;51.996;4.504;2023-11-19T09:14:51;28.28;;;17.09;;
71172;SDS011;58875;51.996;4.504;2023-11-19T09:17:16;29.15;;;17.55;;
71172;SDS011;58875;51.996;4.504;2023-11-19T09:19:43;29.32;;;17.77;;
71172;SDS011;58875;51.996;4.504;2023-11-19T09:22:08;27.52;;;16.82;;
71172;SDS011;58875;51.996;4.504;2023-11-19T09:24:34;28.17;;;17.17;;
71172;SDS011;58875;51.996;4.504;2023-11-19T09:26:59;29.20;;;17.75;;
71172;SDS011;58875;51.996;4.504;2023-11-19T09:29:25;29.79;;;18.06;;
71172;SDS011;58875;51.996;4.504;2023-11-19T09:31:51;25.89;;;15.95;;
71172;SDS011;58875;51.996;4.504;2023-11-19T09:34:16;25.19;;;15.58;;
71172;SDS011;58875;51.996;4.504;2023-11-19T09:36:45;25.66;;;15.78;;
71172;SDS011;58875;51.996;4.504;2023-11-19T09:39:11;25.99;;;15.96;;
71172;SDS011;58875;51.996;4.504;2023-11-19T09:41:40;28.00;;;16.96;;
71172;SDS011;58875;51.996;4.504;2023-11-19T09:44:07;26.43;;;16.10;;
71172;SDS011;58875;51.996;4.504;2023-11-19T09:46:34;28.30;;;17.12;;
71172;SDS011;58875;51.996;4.504;2023-11-19T09:49:01;26.35;;;16.14;;
71172;SDS011;58875;51.996;4.504;2023-11-19T09:51:29;25.02;;;15.40;;
71172;SDS011;58875;51.996;4.504;2023-11-19T09:53:54;24.54;;;14.96;;
71172;SDS011;58875;51.996;4.504;2023-11-19T09:56:20;25.22;;;15.25;;
71172;SDS011;58875;51.996;4.504;2023-11-19T09:58:47;25.40;;;15.46;;
71172;SDS011;58875;51.996;4.504;2023-11-19T10:01:13;24.71;;;15.17;;
71172;SDS011;58875;51.996;4.504;2023-11-19T10:03:39;22.96;;;14.08;;
71172;SDS011;58875;51.996;4.504;2023-11-19T10:06:09;26.40;;;15.99;;
71172;SDS011;58875;51.996;4.504;2023-11-19T10:08:39;24.92;;;15.25;;
71172;SDS011;58875;51.996;4.504;2023-11-19T10:11:06;23.92;;;14.62;;
71172;SDS011;58875;51.996;4.504;2023-11-19T10:13:34;24.31;;;14.84;;
71172;SDS011;58875;51.996;4.504;2023-11-19T10:16:07;23.82;;;14.48;;
71172;SDS011;58875;51.996;4.504;2023-11-19T10:18:34;23.19;;;14.16;;
71172;SDS011;58875;51.996;4.504;2023-11-19T10:21:06;23.48;;;14.18;;
71172;SDS011;58875;51.996;4.504;2023-11-19T10:26:19;24.13;;;14.73;;
71172;SDS011;58875;51.996;4.504;2023-11-19T10:28:46;23.93;;;14.70;;
71172;SDS011;58875;51.996;4.504;2023-11-19T10:31:13;23.71;;;14.54;;
71172;SDS011;58875;51.996;4.504;2023-11-19T10:33:39;23.93;;;14.71;;
71172;SDS011;58875;51.996;4.504;2023-11-19T10:36:05;22.90;;;14.18;;
71172;SDS011;58875;51.996;4.504;2023-11-19T10:38:31;22.61;;;13.92;;
71172;SDS011;58875;51.996;4.504;2023-11-19T10:40:56;22.29;;;13.64;;
71172;SDS011;58875;51.996;4.504;2023-11-19T10:43:22;22.43;;;13.68;;
71172;SDS011;58875;51.996;4.504;2023-11-19T10:45:48;23.86;;;14.41;;
71172;SDS011;58875;51.996;4.504;2023-11-19T10:48:15;23.39;;;14.12;;
71172;SDS011;58875;51.996;4.504;2023-11-19T10:50:41;23.59;;;14.28;;
71172;SDS011;58875;51.996;4.504;2023-11-19T10:53:08;22.14;;;13.43;;
71172;SDS011;58875;51.996;4.504;2023-11-19T10:55:36;23.88;;;14.55;;
71172;SDS011;58875;51.996;4.504;2023-11-19T10:58:09;25.17;;;15.38;;
71172;SDS011;58875;51.996;4.504;2023-11-19T11:00:39;26.74;;;16.30;;
71172;SDS011;58875;51.996;4.504;2023-11-19T11:03:17;28.60;;;17.40;;
71172;SDS011;58875;51.996;4.504;2023-11-19T11:05:47;25.65;;;15.79;;
71172;SDS011;58875;51.996;4.504;2023-11-19T11:08:14;28.10;;;17.21;;
71172;SDS011;58875;51.996;4.504;2023-11-19T11:10:46;31.46;;;19.06;;
71172;SDS011;58875;51.996;4.504;2023-11-19T11:13:20;31.15;;;18.99;;
71172;SDS011;58875;51.996;4.504;2023-11-19T11:15:51;27.74;;;17.03;;
71172;SDS011;58875;51.996;4.504;2023-11-19T11:18:19;28.32;;;17.31;;
71172;SDS011;58875;51.996;4.504;2023-11-19T11:20:45;27.53;;;16.83;;
71172;SDS011;58875;51.996;4.504;2023-11-19T11:29:04;26.08;;;15.99;;
71172;SDS011;58875;51.996;4.504;2023-11-19T11:39:51;22.87;;;14.12;;
71172;SDS011;58875;51.996;4.504;2023-11-19T11:45:01;24.14;;;14.68;;
71172;SDS011;58875;51.996;4.504;2023-11-19T11:50:17;21.87;;;13.46;;
71172;SDS011;58875;51.996;4.504;2023-11-19T11:55:28;19.99;;;12.34;;
71172;SDS011;58875;51.996;4.504;2023-11-19T11:58:03;20.01;;;12.21;;
71172;SDS011;58875;51.996;4.504;2023-11-19T12:00:30;19.82;;;12.01;;
71172;SDS011;58875;51.996;4.504;2023-11-19T12:03:04;18.39;;;11.17;;
71172;SDS011;58875;51.996;4.504;2023-11-19T12:05:40;20.87;;;12.61;;
71172;SDS011;58875;51.996;4.504;2023-11-19T12:08:10;18.35;;;11.16;;
71172;SDS011;58875;51.996;4.504;2023-11-19T12:10:48;20.94;;;12.71;;
71172;SDS011;58875;51.996;4.504;2023-11-19T12:13:23;20.52;;;12.55;;
71172;SDS011;58875;51.996;4.504;2023-11-19T12:18:21;19.87;;;12.26;;
71172;SDS011;58875;51.996;4.504;2023-11-19T12:20:48;21.30;;;12.95;;
71172;SDS011;58875;51.996;4.504;2023-11-19T12:23:14;25.20;;;15.24;;
71172;SDS011;58875;51.996;4.504;2023-11-19T12:25:40;24.76;;;15.01;;
71172;SDS011;58875;51.996;4.504;2023-11-19T12:28:11;24.16;;;14.69;;
71172;SDS011;58875;51.996;4.504;2023-11-19T12:30:38;22.30;;;13.55;;
71172;SDS011;58875;51.996;4.504;2023-11-19T12:33:13;23.63;;;14.31;;
71172;SDS011;58875;51.996;4.504;2023-11-19T12:35:46;23.90;;;14.49;;
71172;SDS011;58875;51.996;4.504;2023-11-19T12:38:22;23.04;;;14.12;;
71172;SDS011;58875;51.996;4.504;2023-11-19T12:41:24;26.62;;;16.09;;
71172;SDS011;58875;51.996;4.504;2023-11-19T12:43:45;24.43;;;14.87;;
71172;SDS011;58875;51.996;4.504;2023-11-19T12:46:21;24.61;;;15.09;;
71172;SDS011;58875;51.996;4.504;2023-11-19T12:48:48;25.35;;;15.55;;
71172;SDS011;58875;51.996;4.504;2023-11-19T12:51:14;26.36;;;15.94;;
71172;SDS011;58875;51.996;4.504;2023-11-19T12:53:50;25.65;;;15.61;;
71172;SDS011;58875;51.996;4.504;2023-11-19T12:56:19;25.22;;;15.32;;
71172;SDS011;58875;51.996;4.504;2023-11-19T12:58:46;25.05;;;15.14;;
71172;SDS011;58875;51.996;4.504;2023-11-19T13:01:15;24.75;;;14.97;;
71172;SDS011;58875;51.996;4.504;2023-11-19T13:03:43;24.04;;;14.57;;
71172;SDS011;58875;51.996;4.504;2023-11-19T13:06:09;24.72;;;14.91;;
71172;SDS011;58875;51.996;4.504;2023-11-19T13:11:07;26.92;;;16.31;;
71172;SDS011;58875;51.996;4.504;2023-11-19T13:13:52;26.42;;;15.95;;
71172;SDS011;58875;51.996;4.504;2023-11-19T13:16:22;28.39;;;17.21;;
71172;SDS011;58875;51.996;4.504;2023-11-19T13:18:48;30.15;;;18.08;;
71172;SDS011;58875;51.996;4.504;2023-11-19T13:21:13;28.58;;;17.13;;
71172;SDS011;58875;51.996;4.504;2023-11-19T13:23:39;26.78;;;16.20;;
71172;SDS011;58875;51.996;4.504;2023-11-19T13:26:05;27.40;;;16.63;;
71172;SDS011;58875;51.996;4.504;2023-11-19T13:28:31;25.66;;;15.62;;
71172;SDS011;58875;51.996;4.504;2023-11-19T13:30:59;24.34;;;14.81;;
71172;SDS011;58875;51.996;4.504;2023-11-19T13:33:25;28.03;;;17.06;;
71172;SDS011;58875;51.996;4.504;2023-11-19T13:35:54;24.82;;;15.16;;
71172;SDS011;58875;51.996;4.504;2023-11-19T13:38:20;26.19;;;15.85;;
71172;SDS011;58875;51.996;4.504;2023-11-19T13:40:46;26.90;;;16.18;;
71172;SDS011;58875;51.996;4.504;2023-11-19T13:43:11;26.60;;;16.11;;
71172;SDS011;58875;51.996;4.504;2023-11-19T13:45:37;24.45;;;14.86;;
71172;SDS011;58875;51.996;4.504;2023-11-19T13:48:03;23.52;;;14.47;;
71172;SDS011;58875;51.996;4.504;2023-11-19T13:50:28;22.63;;;14.00;;
71172;SDS011;58875;51.996;4.504;2023-11-19T13:52:54;22.11;;;13.76;;
71172;SDS011;58875;51.996;4.504;2023-11-19T13:55:20;22.86;;;14.12;;
71172;SDS011;58875;51.996;4.504;2023-11-19T13:57:47;21.95;;;13.66;;
71172;SDS011;58875;51.996;4.504;2023-11-19T14:00:14;22.23;;;13.80;;
71172;SDS011;58875;51.996;4.504;2023-11-19T14:02:45;21.60;;;13.49;;
71172;SDS011;58875;51.996;4.504;2023-11-19T14:05:13;23.75;;;14.70;;
71172;SDS011;58875;51.996;4.504;2023-11-19T14:07:42;23.79;;;14.71;;
71172;SDS011;58875;51.996;4.504;2023-11-19T14:10:09;21.56;;;13.43;;
71172;SDS011;58875;51.996;4.504;2023-11-19T14:12:39;21.44;;;13.44;;
71172;SDS011;58875;51.996;4.504;2023-11-19T14:15:08;23.32;;;14.47;;
71172;SDS011;58875;51.996;4.504;2023-11-19T14:17:35;24.14;;;14.90;;
71172;SDS011;58875;51.996;4.504;2023-11-19T14:20:02;26.28;;;16.07;;
71172;SDS011;58875;51.996;4.504;2023-11-19T14:22:38;27.11;;;16.52;;
71172;SDS011;58875;51.996;4.504;2023-11-19T14:25:08;29.15;;;17.67;;
71172;SDS011;58875;51.996;4.504;2023-11-19T14:27:37;24.88;;;15.25;;
71172;SDS011;58875;51.996;4.504;2023-11-19T14:30:05;24.06;;;14.78;;
71172;SDS011;58875;51.996;4.504;2023-11-19T14:32:31;23.28;;;14.24;;
71172;SDS011;58875;51.996;4.504;2023-11-19T14:34:57;25.94;;;15.68;;
71172;SDS011;58875;51.996;4.504;2023-11-19T14:37:23;23.48;;;14.26;;
71172;SDS011;58875;51.996;4.504;2023-11-19T14:39:48;22.89;;;13.98;;
71172;SDS011;58875;51.996;4.504;2023-11-19T14:42:16;22.54;;;13.90;;
71172;SDS011;58875;51.996;4.504;2023-11-19T14:44:42;21.18;;;13.12;;
71172;SDS011;58875;51.996;4.504;2023-11-19T14:47:07;22.08;;;13.56;;
71172;SDS011;58875;51.996;4.504;2023-11-19T14:49:34;22.25;;;13.74;;
71172;SDS011;58875;51.996;4.504;2023-11-19T14:52:02;21.56;;;13.31;;
71172;SDS011;58875;51.996;4.504;2023-11-19T14:54:28;24.11;;;14.72;;